sensor_id;sensor_type;location;lat;lon;timestamp;P1;durP1;ratioP1;P2;durP2;ratioP2
25299;SDS011;13241;51.208;4.432;2023-05-10T00:02:07;12.55;;;5.57;;
25299;SDS011;13241;51.208;4.432;2023-05-10T00:04:34;9.73;;;4.28;;
25299;SDS011;13241;51.208;4.432;2023-05-10T00:07:01;7.32;;;4.68;;
25299;SDS011;13241;51.208;4.432;2023-05-10T00:09:28;10.80;;;4.47;;
25299;SDS011;13241;51.208;4.432;2023-05-10T00:11:55;10.35;;;4.55;;
25299;SDS011;13241;51.208;4.432;2023-05-10T00:14:24;9.85;;;4.60;;
25299;SDS011;13241;51.208;4.432;2023-05-10T00:16:51;11.70;;;5.63;;
25299;SDS011;13241;51.208;4.432;2023-05-10T00:19:18;7.95;;;4.05;;
25299;SDS011;13241;51.208;4.432;2023-05-10T00:21:45;10.35;;;4.53;;
25299;SDS011;13241;51.208;4.432;2023-05-10T00:24:12;14.00;;;4.95;;
25299;SDS011;13241;51.208;4.432;2023-05-10T00:26:39;8.23;;;5.03;;
25299;SDS011;13241;51.208;4.432;2023-05-10T00:29:08;11.73;;;4.85;;
25299;SDS011;13241;51.208;4.432;2023-05-10T00:31:35;9.20;;;4.60;;
25299;SDS011;13241;51.208;4.432;2023-05-10T00:34:02;10.25;;;4.85;;
25299;SDS011;13241;51.208;4.432;2023-05-10T00:36:28;12.13;;;5.22;;
25299;SDS011;13241;51.208;4.432;2023-05-10T00:38:55;16.27;;;4.90;;
25299;SDS011;13241;51.208;4.432;2023-05-10T00:41:22;18.25;;;5.53;;
25299;SDS011;13241;51.208;4.432;2023-05-10T00:43:49;11.98;;;4.75;;
25299;SDS011;13241;51.208;4.432;2023-05-10T00:46:16;12.15;;;5.57;;
25299;SDS011;13241;51.208;4.432;2023-05-10T00:48:43;15.27;;;5.60;;
25299;SDS011;13241;51.208;4.432;2023-05-10T00:51:10;11.93;;;5.22;;
25299;SDS011;13241;51.208;4.432;2023-05-10T00:53:37;10.48;;;5.32;;
25299;SDS011;13241;51.208;4.432;2023-05-10T00:56:04;15.20;;;5.45;;
25299;SDS011;13241;51.208;4.432;2023-05-10T00:58:31;18.48;;;5.90;;
25299;SDS011;13241;51.208;4.432;2023-05-10T01:00:58;11.30;;;5.45;;
25299;SDS011;13241;51.208;4.432;2023-05-10T01:03:26;10.38;;;5.43;;
25299;SDS011;13241;51.208;4.432;2023-05-10T01:05:54;15.18;;;5.15;;
25299;SDS011;13241;51.208;4.432;2023-05-10T01:08:23;10.23;;;4.93;;
25299;SDS011;13241;51.208;4.432;2023-05-10T01:10:51;16.63;;;5.75;;
25299;SDS011;13241;51.208;4.432;2023-05-10T01:13:23;16.48;;;6.00;;
25299;SDS011;13241;51.208;4.432;2023-05-10T01:15:58;9.27;;;4.88;;
25299;SDS011;13241;51.208;4.432;2023-05-10T01:18:28;14.15;;;5.95;;
25299;SDS011;13241;51.208;4.432;2023-05-10T01:26:33;17.48;;;7.28;;
25299;SDS011;13241;51.208;4.432;2023-05-10T01:37:50;17.80;;;6.28;;
25299;SDS011;13241;51.208;4.432;2023-05-10T01:40:39;19.55;;;8.02;;
25299;SDS011;13241;51.208;4.432;2023-05-10T01:43:17;13.90;;;7.13;;
25299;SDS011;13241;51.208;4.432;2023-05-10T01:48:39;16.92;;;7.55;;
25299;SDS011;13241;51.208;4.432;2023-05-10T01:51:13;18.38;;;6.72;;
25299;SDS011;13241;51.208;4.432;2023-05-10T01:53:47;13.25;;;7.28;;
25299;SDS011;13241;51.208;4.432;2023-05-10T01:56:17;20.63;;;6.97;;
25299;SDS011;13241;51.208;4.432;2023-05-10T01:58:48;18.35;;;6.78;;
25299;SDS011;13241;51.208;4.432;2023-05-10T02:01:17;10.68;;;6.00;;
25299;SDS011;13241;51.208;4.432;2023-05-10T02:03:47;15.50;;;6.75;;
25299;SDS011;13241;51.208;4.432;2023-05-10T02:06:18;14.35;;;6.70;;
25299;SDS011;13241;51.208;4.432;2023-05-10T02:08:47;19.00;;;7.25;;
25299;SDS011;13241;51.208;4.432;2023-05-10T02:11:16;19.55;;;6.60;;
25299;SDS011;13241;51.208;4.432;2023-05-10T02:13:44;10.82;;;5.15;;
25299;SDS011;13241;51.208;4.432;2023-05-10T02:16:13;10.27;;;5.32;;
25299;SDS011;13241;51.208;4.432;2023-05-10T02:18:42;14.45;;;6.93;;
25299;SDS011;13241;51.208;4.432;2023-05-10T02:21:11;15.43;;;7.05;;
25299;SDS011;13241;51.208;4.432;2023-05-10T02:23:40;14.70;;;6.38;;
25299;SDS011;13241;51.208;4.432;2023-05-10T02:26:07;14.18;;;8.10;;
25299;SDS011;13241;51.208;4.432;2023-05-10T02:28:35;26.23;;;8.77;;
25299;SDS011;13241;51.208;4.432;2023-05-10T02:31:04;19.45;;;7.78;;
25299;SDS011;13241;51.208;4.432;2023-05-10T02:33:33;19.05;;;8.45;;
25299;SDS011;13241;51.208;4.432;2023-05-10T02:36:02;17.75;;;8.73;;
25299;SDS011;13241;51.208;4.432;2023-05-10T02:38:30;24.50;;;7.60;;
25299;SDS011;13241;51.208;4.432;2023-05-10T02:40:58;15.75;;;6.85;;
25299;SDS011;13241;51.208;4.432;2023-05-10T02:43:26;15.10;;;7.90;;
25299;SDS011;13241;51.208;4.432;2023-05-10T02:45:56;17.52;;;8.52;;
25299;SDS011;13241;51.208;4.432;2023-05-10T02:48:24;21.63;;;8.15;;
25299;SDS011;13241;51.208;4.432;2023-05-10T02:50:52;23.75;;;11.65;;
25299;SDS011;13241;51.208;4.432;2023-05-10T02:53:22;28.67;;;11.88;;
25299;SDS011;13241;51.208;4.432;2023-05-10T02:58:23;47.42;;;18.25;;
25299;SDS011;13241;51.208;4.432;2023-05-10T03:00:50;45.85;;;16.00;;
25299;SDS011;13241;51.208;4.432;2023-05-10T03:03:17;55.30;;;19.20;;
25299;SDS011;13241;51.208;4.432;2023-05-10T03:05:44;61.53;;;17.70;;
25299;SDS011;13241;51.208;4.432;2023-05-10T03:08:10;43.25;;;16.70;;
25299;SDS011;13241;51.208;4.432;2023-05-10T03:10:40;40.13;;;15.65;;
25299;SDS011;13241;51.208;4.432;2023-05-10T03:16:14;39.67;;;14.40;;
25299;SDS011;13241;51.208;4.432;2023-05-10T03:21:32;36.67;;;12.95;;
25299;SDS011;13241;51.208;4.432;2023-05-10T03:24:05;32.25;;;12.60;;
25299;SDS011;13241;51.208;4.432;2023-05-10T03:26:35;32.25;;;13.40;;
25299;SDS011;13241;51.208;4.432;2023-05-10T03:29:11;28.48;;;11.25;;
25299;SDS011;13241;51.208;4.432;2023-05-10T03:31:40;29.55;;;10.70;;
25299;SDS011;13241;51.208;4.432;2023-05-10T03:34:07;25.00;;;11.40;;
25299;SDS011;13241;51.208;4.432;2023-05-10T03:36:34;27.70;;;11.15;;
25299;SDS011;13241;51.208;4.432;2023-05-10T03:39:02;34.97;;;12.60;;
25299;SDS011;13241;51.208;4.432;2023-05-10T03:41:30;30.05;;;12.45;;
25299;SDS011;13241;51.208;4.432;2023-05-10T03:43:57;26.95;;;11.63;;
25299;SDS011;13241;51.208;4.432;2023-05-10T03:46:24;27.63;;;10.02;;
25299;SDS011;13241;51.208;4.432;2023-05-10T03:48:51;33.03;;;11.38;;
25299;SDS011;13241;51.208;4.432;2023-05-10T03:51:18;24.50;;;10.13;;
25299;SDS011;13241;51.208;4.432;2023-05-10T03:53:45;27.48;;;10.90;;
25299;SDS011;13241;51.208;4.432;2023-05-10T03:56:12;32.15;;;9.73;;
25299;SDS011;13241;51.208;4.432;2023-05-10T03:58:40;24.75;;;9.73;;
25299;SDS011;13241;51.208;4.432;2023-05-10T04:01:07;29.50;;;11.15;;
25299;SDS011;13241;51.208;4.432;2023-05-10T04:03:34;28.67;;;11.18;;
25299;SDS011;13241;51.208;4.432;2023-05-10T04:06:04;25.02;;;11.00;;
25299;SDS011;13241;51.208;4.432;2023-05-10T04:08:32;23.35;;;10.68;;
25299;SDS011;13241;51.208;4.432;2023-05-10T04:11:09;31.00;;;10.13;;
25299;SDS011;13241;51.208;4.432;2023-05-10T04:13:37;27.65;;;11.52;;
25299;SDS011;13241;51.208;4.432;2023-05-10T04:16:04;28.73;;;11.05;;
25299;SDS011;13241;51.208;4.432;2023-05-10T04:18:32;23.92;;;10.30;;
25299;SDS011;13241;51.208;4.432;2023-05-10T04:20:58;23.15;;;9.60;;
25299;SDS011;13241;51.208;4.432;2023-05-10T04:23:26;19.95;;;9.60;;
25299;SDS011;13241;51.208;4.432;2023-05-10T04:26:00;27.35;;;9.90;;
25299;SDS011;13241;51.208;4.432;2023-05-10T04:28:28;32.33;;;9.70;;
25299;SDS011;13241;51.208;4.432;2023-05-10T04:31:05;21.73;;;9.30;;
25299;SDS011;13241;51.208;4.432;2023-05-10T04:33:34;27.40;;;9.75;;
25299;SDS011;13241;51.208;4.432;2023-05-10T04:36:02;22.33;;;9.52;;
25299;SDS011;13241;51.208;4.432;2023-05-10T04:38:29;25.77;;;11.43;;
25299;SDS011;13241;51.208;4.432;2023-05-10T04:41:09;28.02;;;10.57;;
25299;SDS011;13241;51.208;4.432;2023-05-10T04:43:37;33.13;;;10.35;;
25299;SDS011;13241;51.208;4.432;2023-05-10T04:46:05;33.70;;;11.27;;
25299;SDS011;13241;51.208;4.432;2023-05-10T04:48:34;23.15;;;9.30;;
25299;SDS011;13241;51.208;4.432;2023-05-10T04:51:01;35.85;;;11.30;;
25299;SDS011;13241;51.208;4.432;2023-05-10T04:53:29;21.05;;;10.02;;
25299;SDS011;13241;51.208;4.432;2023-05-10T04:55:56;26.63;;;11.25;;
25299;SDS011;13241;51.208;4.432;2023-05-10T04:58:23;31.33;;;10.95;;
25299;SDS011;13241;51.208;4.432;2023-05-10T05:00:50;28.05;;;10.73;;
25299;SDS011;13241;51.208;4.432;2023-05-10T05:03:17;30.98;;;11.27;;
25299;SDS011;13241;51.208;4.432;2023-05-10T05:05:44;28.58;;;10.93;;
25299;SDS011;13241;51.208;4.432;2023-05-10T05:08:11;42.55;;;11.77;;
25299;SDS011;13241;51.208;4.432;2023-05-10T05:10:38;26.20;;;11.45;;
25299;SDS011;13241;51.208;4.432;2023-05-10T05:13:05;28.27;;;9.70;;
25299;SDS011;13241;51.208;4.432;2023-05-10T05:15:31;25.25;;;10.65;;
25299;SDS011;13241;51.208;4.432;2023-05-10T05:17:59;31.85;;;12.43;;
25299;SDS011;13241;51.208;4.432;2023-05-10T05:20:26;34.25;;;11.07;;
25299;SDS011;13241;51.208;4.432;2023-05-10T05:22:53;35.20;;;10.68;;
25299;SDS011;13241;51.208;4.432;2023-05-10T05:25:20;21.58;;;8.98;;
25299;SDS011;13241;51.208;4.432;2023-05-10T05:27:48;26.27;;;9.82;;
25299;SDS011;13241;51.208;4.432;2023-05-10T05:30:15;22.70;;;9.30;;
25299;SDS011;13241;51.208;4.432;2023-05-10T05:32:42;23.70;;;8.40;;
25299;SDS011;13241;51.208;4.432;2023-05-10T05:35:10;22.83;;;9.85;;
25299;SDS011;13241;51.208;4.432;2023-05-10T05:37:37;18.77;;;8.15;;
25299;SDS011;13241;51.208;4.432;2023-05-10T05:40:05;16.85;;;8.57;;
25299;SDS011;13241;51.208;4.432;2023-05-10T05:42:33;19.13;;;7.80;;
25299;SDS011;13241;51.208;4.432;2023-05-10T05:45:00;21.13;;;8.98;;
25299;SDS011;13241;51.208;4.432;2023-05-10T05:47:27;20.77;;;8.35;;
25299;SDS011;13241;51.208;4.432;2023-05-10T05:49:54;18.33;;;8.15;;
25299;SDS011;13241;51.208;4.432;2023-05-10T05:52:21;17.25;;;7.88;;
25299;SDS011;13241;51.208;4.432;2023-05-10T05:54:48;18.38;;;8.27;;
25299;SDS011;13241;51.208;4.432;2023-05-10T05:57:15;20.25;;;8.05;;
25299;SDS011;13241;51.208;4.432;2023-05-10T05:59:42;24.65;;;9.27;;
25299;SDS011;13241;51.208;4.432;2023-05-10T06:02:10;21.65;;;8.68;;
25299;SDS011;13241;51.208;4.432;2023-05-10T06:04:37;25.15;;;10.15;;
25299;SDS011;13241;51.208;4.432;2023-05-10T06:07:04;21.55;;;9.20;;
25299;SDS011;13241;51.208;4.432;2023-05-10T06:09:31;21.23;;;9.07;;
25299;SDS011;13241;51.208;4.432;2023-05-10T06:11:58;22.48;;;9.80;;
25299;SDS011;13241;51.208;4.432;2023-05-10T06:14:25;20.48;;;9.05;;
25299;SDS011;13241;51.208;4.432;2023-05-10T06:16:51;20.85;;;8.50;;
25299;SDS011;13241;51.208;4.432;2023-05-10T06:19:18;17.35;;;9.50;;
25299;SDS011;13241;51.208;4.432;2023-05-10T06:21:45;22.35;;;9.02;;
25299;SDS011;13241;51.208;4.432;2023-05-10T06:24:12;25.23;;;9.55;;
25299;SDS011;13241;51.208;4.432;2023-05-10T06:26:40;17.90;;;9.95;;
25299;SDS011;13241;51.208;4.432;2023-05-10T06:29:07;24.08;;;10.10;;
25299;SDS011;13241;51.208;4.432;2023-05-10T06:31:33;20.25;;;8.70;;
25299;SDS011;13241;51.208;4.432;2023-05-10T06:34:01;18.85;;;8.00;;
25299;SDS011;13241;51.208;4.432;2023-05-10T06:36:27;111.72;;;20.55;;
25299;SDS011;13241;51.208;4.432;2023-05-10T06:38:54;35.70;;;11.13;;
25299;SDS011;13241;51.208;4.432;2023-05-10T06:41:21;19.77;;;9.38;;
25299;SDS011;13241;51.208;4.432;2023-05-10T06:43:50;18.40;;;8.30;;
25299;SDS011;13241;51.208;4.432;2023-05-10T06:46:17;19.67;;;8.48;;
25299;SDS011;13241;51.208;4.432;2023-05-10T06:48:44;18.75;;;9.05;;
25299;SDS011;13241;51.208;4.432;2023-05-10T06:51:10;23.63;;;8.98;;
25299;SDS011;13241;51.208;4.432;2023-05-10T06:53:37;14.68;;;6.32;;
25299;SDS011;13241;51.208;4.432;2023-05-10T06:56:04;17.52;;;7.88;;
25299;SDS011;13241;51.208;4.432;2023-05-10T06:58:31;17.58;;;7.57;;
25299;SDS011;13241;51.208;4.432;2023-05-10T07:01:02;19.02;;;7.95;;
25299;SDS011;13241;51.208;4.432;2023-05-10T07:03:30;14.00;;;6.55;;
25299;SDS011;13241;51.208;4.432;2023-05-10T07:06:01;26.08;;;7.60;;
25299;SDS011;13241;51.208;4.432;2023-05-10T07:08:33;27.17;;;8.30;;
25299;SDS011;13241;51.208;4.432;2023-05-10T07:11:01;14.45;;;6.40;;
25299;SDS011;13241;51.208;4.432;2023-05-10T07:13:33;13.00;;;6.17;;
25299;SDS011;13241;51.208;4.432;2023-05-10T07:16:00;13.95;;;6.88;;
25299;SDS011;13241;51.208;4.432;2023-05-10T07:18:28;14.90;;;6.97;;
25299;SDS011;13241;51.208;4.432;2023-05-10T07:20:56;12.60;;;6.88;;
25299;SDS011;13241;51.208;4.432;2023-05-10T07:23:23;12.48;;;6.45;;
25299;SDS011;13241;51.208;4.432;2023-05-10T07:25:51;16.15;;;7.28;;
25299;SDS011;13241;51.208;4.432;2023-05-10T07:28:18;10.82;;;5.60;;
25299;SDS011;13241;51.208;4.432;2023-05-10T07:30:46;13.63;;;5.88;;
25299;SDS011;13241;51.208;4.432;2023-05-10T07:33:13;9.98;;;4.55;;
25299;SDS011;13241;51.208;4.432;2023-05-10T07:35:42;15.23;;;5.63;;
25299;SDS011;13241;51.208;4.432;2023-05-10T07:38:10;7.45;;;4.68;;
25299;SDS011;13241;51.208;4.432;2023-05-10T07:40:37;6.65;;;3.72;;
25299;SDS011;13241;51.208;4.432;2023-05-10T07:43:05;8.13;;;3.47;;
25299;SDS011;13241;51.208;4.432;2023-05-10T07:45:32;13.32;;;5.28;;
25299;SDS011;13241;51.208;4.432;2023-05-10T07:47:59;14.27;;;5.55;;
25299;SDS011;13241;51.208;4.432;2023-05-10T07:50:26;9.52;;;4.80;;
25299;SDS011;13241;51.208;4.432;2023-05-10T07:52:54;10.48;;;3.95;;
25299;SDS011;13241;51.208;4.432;2023-05-10T07:55:21;10.90;;;4.10;;
25299;SDS011;13241;51.208;4.432;2023-05-10T07:57:48;7.15;;;3.70;;
25299;SDS011;13241;51.208;4.432;2023-05-10T08:00:19;7.57;;;4.05;;
25299;SDS011;13241;51.208;4.432;2023-05-10T08:02:47;7.43;;;3.95;;
25299;SDS011;13241;51.208;4.432;2023-05-10T08:05:15;10.85;;;4.20;;
25299;SDS011;13241;51.208;4.432;2023-05-10T08:07:42;9.02;;;3.92;;
25299;SDS011;13241;51.208;4.432;2023-05-10T08:10:12;7.65;;;3.65;;
25299;SDS011;13241;51.208;4.432;2023-05-10T08:12:39;4.97;;;3.72;;
25299;SDS011;13241;51.208;4.432;2023-05-10T08:15:06;5.88;;;4.25;;
25299;SDS011;13241;51.208;4.432;2023-05-10T08:17:34;5.90;;;3.67;;
25299;SDS011;13241;51.208;4.432;2023-05-10T08:20:01;6.47;;;3.38;;
25299;SDS011;13241;51.208;4.432;2023-05-10T08:22:28;6.43;;;3.70;;
25299;SDS011;13241;51.208;4.432;2023-05-10T08:24:55;11.35;;;6.20;;
25299;SDS011;13241;51.208;4.432;2023-05-10T08:27:21;12.55;;;6.35;;
25299;SDS011;13241;51.208;4.432;2023-05-10T08:29:48;10.82;;;6.15;;
25299;SDS011;13241;51.208;4.432;2023-05-10T08:32:16;10.27;;;6.25;;
25299;SDS011;13241;51.208;4.432;2023-05-10T08:34:44;13.70;;;6.45;;
25299;SDS011;13241;51.208;4.432;2023-05-10T08:37:11;20.95;;;7.10;;
25299;SDS011;13241;51.208;4.432;2023-05-10T08:39:39;8.05;;;4.28;;
25299;SDS011;13241;51.208;4.432;2023-05-10T08:42:07;13.48;;;6.43;;
25299;SDS011;13241;51.208;4.432;2023-05-10T08:44:35;11.48;;;6.32;;
25299;SDS011;13241;51.208;4.432;2023-05-10T08:47:06;8.88;;;5.43;;
25299;SDS011;13241;51.208;4.432;2023-05-10T08:49:34;10.45;;;6.03;;
25299;SDS011;13241;51.208;4.432;2023-05-10T08:52:02;12.63;;;6.60;;
25299;SDS011;13241;51.208;4.432;2023-05-10T08:54:33;14.98;;;6.85;;
25299;SDS011;13241;51.208;4.432;2023-05-10T08:57:01;10.07;;;5.97;;
25299;SDS011;13241;51.208;4.432;2023-05-10T08:59:28;13.70;;;8.07;;
25299;SDS011;13241;51.208;4.432;2023-05-10T09:01:56;15.98;;;8.57;;
25299;SDS011;13241;51.208;4.432;2023-05-10T09:04:25;17.13;;;9.23;;
25299;SDS011;13241;51.208;4.432;2023-05-10T09:06:55;20.70;;;9.07;;
25299;SDS011;13241;51.208;4.432;2023-05-10T09:09:22;19.10;;;9.27;;
25299;SDS011;13241;51.208;4.432;2023-05-10T09:11:51;17.52;;;7.90;;
25299;SDS011;13241;51.208;4.432;2023-05-10T09:14:19;17.73;;;9.15;;
25299;SDS011;13241;51.208;4.432;2023-05-10T09:16:46;18.00;;;8.20;;
25299;SDS011;13241;51.208;4.432;2023-05-10T09:19:14;13.25;;;7.05;;
25299;SDS011;13241;51.208;4.432;2023-05-10T09:21:41;14.38;;;6.38;;
25299;SDS011;13241;51.208;4.432;2023-05-10T09:24:11;15.57;;;7.05;;
25299;SDS011;13241;51.208;4.432;2023-05-10T09:26:47;17.77;;;8.00;;
25299;SDS011;13241;51.208;4.432;2023-05-10T09:29:15;14.43;;;6.97;;
25299;SDS011;13241;51.208;4.432;2023-05-10T09:31:44;15.73;;;7.10;;
25299;SDS011;13241;51.208;4.432;2023-05-10T09:34:15;14.85;;;7.75;;
25299;SDS011;13241;51.208;4.432;2023-05-10T09:36:54;24.13;;;8.38;;
25299;SDS011;13241;51.208;4.432;2023-05-10T09:39:38;18.20;;;7.63;;
25299;SDS011;13241;51.208;4.432;2023-05-10T09:42:06;18.70;;;7.82;;
25299;SDS011;13241;51.208;4.432;2023-05-10T09:44:35;24.60;;;8.20;;
25299;SDS011;13241;51.208;4.432;2023-05-10T09:47:02;16.65;;;7.75;;
25299;SDS011;13241;51.208;4.432;2023-05-10T09:49:29;18.58;;;8.00;;
25299;SDS011;13241;51.208;4.432;2023-05-10T09:52:00;16.83;;;7.43;;
25299;SDS011;13241;51.208;4.432;2023-05-10T09:54:28;20.52;;;8.18;;
25299;SDS011;13241;51.208;4.432;2023-05-10T09:56:56;13.05;;;6.70;;
25299;SDS011;13241;51.208;4.432;2023-05-10T09:59:24;12.43;;;5.97;;
25299;SDS011;13241;51.208;4.432;2023-05-10T10:01:56;16.73;;;5.80;;
25299;SDS011;13241;51.208;4.432;2023-05-10T10:04:27;14.00;;;6.00;;
25299;SDS011;13241;51.208;4.432;2023-05-10T10:07:01;11.98;;;6.10;;
25299;SDS011;13241;51.208;4.432;2023-05-10T10:09:29;8.85;;;5.32;;
25299;SDS011;13241;51.208;4.432;2023-05-10T10:11:56;19.45;;;6.65;;
25299;SDS011;13241;51.208;4.432;2023-05-10T10:14:24;15.48;;;5.75;;
25299;SDS011;13241;51.208;4.432;2023-05-10T10:16:51;12.48;;;5.78;;
25299;SDS011;13241;51.208;4.432;2023-05-10T10:19:33;10.13;;;5.60;;
25299;SDS011;13241;51.208;4.432;2023-05-10T10:22:02;12.20;;;5.97;;
25299;SDS011;13241;51.208;4.432;2023-05-10T10:24:29;14.13;;;5.97;;
25299;SDS011;13241;51.208;4.432;2023-05-10T10:26:57;10.30;;;5.75;;
25299;SDS011;13241;51.208;4.432;2023-05-10T10:29:36;24.27;;;6.47;;
25299;SDS011;13241;51.208;4.432;2023-05-10T10:32:22;10.25;;;5.32;;
25299;SDS011;13241;51.208;4.432;2023-05-10T10:35:20;22.92;;;5.88;;
25299;SDS011;13241;51.208;4.432;2023-05-10T10:37:48;14.85;;;5.57;;
25299;SDS011;13241;51.208;4.432;2023-05-10T10:42:53;12.93;;;5.80;;
25299;SDS011;13241;51.208;4.432;2023-05-10T10:45:21;12.95;;;4.85;;
25299;SDS011;13241;51.208;4.432;2023-05-10T10:47:53;12.90;;;5.00;;
25299;SDS011;13241;51.208;4.432;2023-05-10T10:50:57;11.50;;;5.45;;
25299;SDS011;13241;51.208;4.432;2023-05-10T10:53:27;26.80;;;6.53;;
25299;SDS011;13241;51.208;4.432;2023-05-10T10:56:06;40.90;;;8.57;;
25299;SDS011;13241;51.208;4.432;2023-05-10T10:58:36;28.52;;;6.57;;
25299;SDS011;13241;51.208;4.432;2023-05-10T11:01:14;31.98;;;7.45;;
25299;SDS011;13241;51.208;4.432;2023-05-10T11:06:46;21.25;;;6.07;;
25299;SDS011;13241;51.208;4.432;2023-05-10T11:09:13;11.88;;;4.78;;
25299;SDS011;13241;51.208;4.432;2023-05-10T11:11:50;24.33;;;7.07;;
25299;SDS011;13241;51.208;4.432;2023-05-10T11:14:21;15.38;;;6.20;;
25299;SDS011;13241;51.208;4.432;2023-05-10T11:16:48;16.63;;;6.05;;
25299;SDS011;13241;51.208;4.432;2023-05-10T11:19:16;23.92;;;6.90;;
25299;SDS011;13241;51.208;4.432;2023-05-10T11:21:47;68.47;;;13.30;;
25299;SDS011;13241;51.208;4.432;2023-05-10T11:24:37;10.60;;;5.00;;
25299;SDS011;13241;51.208;4.432;2023-05-10T11:27:05;17.48;;;6.15;;
25299;SDS011;13241;51.208;4.432;2023-05-10T11:29:32;14.68;;;6.75;;
25299;SDS011;13241;51.208;4.432;2023-05-10T11:31:59;11.00;;;5.55;;
25299;SDS011;13241;51.208;4.432;2023-05-10T11:34:27;15.45;;;5.95;;
25299;SDS011;13241;51.208;4.432;2023-05-10T11:36:57;13.48;;;5.55;;
25299;SDS011;13241;51.208;4.432;2023-05-10T11:39:27;26.45;;;6.65;;
25299;SDS011;13241;51.208;4.432;2023-05-10T11:41:56;13.75;;;5.88;;
25299;SDS011;13241;51.208;4.432;2023-05-10T11:44:24;9.93;;;5.50;;
25299;SDS011;13241;51.208;4.432;2023-05-10T11:46:58;16.08;;;5.30;;
25299;SDS011;13241;51.208;4.432;2023-05-10T11:49:27;10.55;;;5.47;;
25299;SDS011;13241;51.208;4.432;2023-05-10T11:52:03;14.95;;;6.13;;
25299;SDS011;13241;51.208;4.432;2023-05-10T11:54:33;12.43;;;5.93;;
25299;SDS011;13241;51.208;4.432;2023-05-10T11:57:04;15.00;;;5.72;;
25299;SDS011;13241;51.208;4.432;2023-05-10T11:59:31;14.43;;;5.80;;
25299;SDS011;13241;51.208;4.432;2023-05-10T12:01:58;9.52;;;4.70;;
25299;SDS011;13241;51.208;4.432;2023-05-10T12:04:25;11.50;;;4.88;;
25299;SDS011;13241;51.208;4.432;2023-05-10T12:06:54;11.30;;;5.15;;
25299;SDS011;13241;51.208;4.432;2023-05-10T12:09:21;8.27;;;4.78;;
25299;SDS011;13241;51.208;4.432;2023-05-10T12:12:05;9.65;;;5.10;;
25299;SDS011;13241;51.208;4.432;2023-05-10T12:14:34;13.23;;;4.78;;
25299;SDS011;13241;51.208;4.432;2023-05-10T12:17:01;12.27;;;4.60;;
25299;SDS011;13241;51.208;4.432;2023-05-10T12:19:28;13.50;;;5.53;;
25299;SDS011;13241;51.208;4.432;2023-05-10T12:22:04;16.52;;;5.40;;
25299;SDS011;13241;51.208;4.432;2023-05-10T12:24:35;11.18;;;5.88;;
25299;SDS011;13241;51.208;4.432;2023-05-10T12:27:04;11.48;;;4.88;;
25299;SDS011;13241;51.208;4.432;2023-05-10T12:29:34;12.77;;;5.13;;
25299;SDS011;13241;51.208;4.432;2023-05-10T12:32:01;12.25;;;5.82;;
25299;SDS011;13241;51.208;4.432;2023-05-10T12:34:33;8.30;;;4.65;;
25299;SDS011;13241;51.208;4.432;2023-05-10T12:37:02;9.98;;;5.32;;
25299;SDS011;13241;51.208;4.432;2023-05-10T12:39:42;10.07;;;5.47;;
25299;SDS011;13241;51.208;4.432;2023-05-10T12:42:10;9.75;;;4.57;;
25299;SDS011;13241;51.208;4.432;2023-05-10T12:44:38;10.35;;;5.32;;
25299;SDS011;13241;51.208;4.432;2023-05-10T12:47:06;25.90;;;6.97;;
25299;SDS011;13241;51.208;4.432;2023-05-10T12:49:33;17.10;;;5.25;;
25299;SDS011;13241;51.208;4.432;2023-05-10T12:52:00;12.82;;;5.40;;
25299;SDS011;13241;51.208;4.432;2023-05-10T12:54:27;7.45;;;3.95;;
25299;SDS011;13241;51.208;4.432;2023-05-10T12:56:54;13.07;;;5.88;;
25299;SDS011;13241;51.208;4.432;2023-05-10T12:59:21;14.02;;;4.47;;
25299;SDS011;13241;51.208;4.432;2023-05-10T13:01:49;12.30;;;5.38;;
25299;SDS011;13241;51.208;4.432;2023-05-10T13:04:15;19.58;;;5.78;;
25299;SDS011;13241;51.208;4.432;2023-05-10T13:06:42;11.20;;;5.72;;
25299;SDS011;13241;51.208;4.432;2023-05-10T13:09:09;11.38;;;5.63;;
25299;SDS011;13241;51.208;4.432;2023-05-10T13:11:37;15.93;;;5.25;;
25299;SDS011;13241;51.208;4.432;2023-05-10T13:14:04;10.25;;;5.00;;
25299;SDS011;13241;51.208;4.432;2023-05-10T13:16:31;15.10;;;5.07;;
25299;SDS011;13241;51.208;4.432;2023-05-10T13:18:58;11.63;;;5.22;;
25299;SDS011;13241;51.208;4.432;2023-05-10T13:21:25;13.52;;;5.80;;
25299;SDS011;13241;51.208;4.432;2023-05-10T13:23:53;12.48;;;5.25;;
25299;SDS011;13241;51.208;4.432;2023-05-10T13:26:19;7.63;;;4.72;;
25299;SDS011;13241;51.208;4.432;2023-05-10T13:28:47;9.88;;;5.25;;
25299;SDS011;13241;51.208;4.432;2023-05-10T13:31:15;15.10;;;6.50;;
25299;SDS011;13241;51.208;4.432;2023-05-10T13:33:42;10.38;;;5.28;;
25299;SDS011;13241;51.208;4.432;2023-05-10T13:36:09;17.92;;;6.75;;
25299;SDS011;13241;51.208;4.432;2023-05-10T13:38:35;11.48;;;5.40;;
25299;SDS011;13241;51.208;4.432;2023-05-10T13:41:03;10.85;;;5.03;;
25299;SDS011;13241;51.208;4.432;2023-05-10T13:43:30;12.20;;;5.57;;
25299;SDS011;13241;51.208;4.432;2023-05-10T13:45:57;12.10;;;5.90;;
25299;SDS011;13241;51.208;4.432;2023-05-10T13:48:24;9.30;;;5.55;;
25299;SDS011;13241;51.208;4.432;2023-05-10T13:50:51;12.05;;;6.13;;
25299;SDS011;13241;51.208;4.432;2023-05-10T13:53:18;11.18;;;5.22;;
25299;SDS011;13241;51.208;4.432;2023-05-10T13:55:45;52.00;;;10.73;;
25299;SDS011;13241;51.208;4.432;2023-05-10T13:58:12;16.05;;;6.18;;
25299;SDS011;13241;51.208;4.432;2023-05-10T14:00:39;14.75;;;6.75;;
25299;SDS011;13241;51.208;4.432;2023-05-10T14:03:06;17.08;;;7.00;;
25299;SDS011;13241;51.208;4.432;2023-05-10T14:05:35;15.60;;;6.30;;
25299;SDS011;13241;51.208;4.432;2023-05-10T14:08:02;33.95;;;6.10;;
25299;SDS011;13241;51.208;4.432;2023-05-10T14:10:30;14.82;;;6.68;;
25299;SDS011;13241;51.208;4.432;2023-05-10T14:12:56;10.35;;;5.70;;
25299;SDS011;13241;51.208;4.432;2023-05-10T14:15:23;15.38;;;7.35;;
25299;SDS011;13241;51.208;4.432;2023-05-10T14:17:50;14.38;;;7.78;;
25299;SDS011;13241;51.208;4.432;2023-05-10T14:20:17;19.13;;;7.95;;
25299;SDS011;13241;51.208;4.432;2023-05-10T14:22:44;21.27;;;8.88;;
25299;SDS011;13241;51.208;4.432;2023-05-10T14:25:11;17.63;;;8.52;;
25299;SDS011;13241;51.208;4.432;2023-05-10T14:27:39;16.50;;;8.93;;
25299;SDS011;13241;51.208;4.432;2023-05-10T14:30:06;19.20;;;7.80;;
25299;SDS011;13241;51.208;4.432;2023-05-10T14:32:34;14.82;;;7.60;;
25299;SDS011;13241;51.208;4.432;2023-05-10T14:35:02;13.85;;;7.45;;
25299;SDS011;13241;51.208;4.432;2023-05-10T14:37:30;19.40;;;9.13;;
25299;SDS011;13241;51.208;4.432;2023-05-10T14:39:57;46.65;;;10.32;;
25299;SDS011;13241;51.208;4.432;2023-05-10T14:42:24;18.58;;;7.65;;
25299;SDS011;13241;51.208;4.432;2023-05-10T14:44:50;15.15;;;7.18;;
25299;SDS011;13241;51.208;4.432;2023-05-10T14:47:17;18.75;;;6.72;;
25299;SDS011;13241;51.208;4.432;2023-05-10T14:49:44;11.60;;;5.93;;
25299;SDS011;13241;51.208;4.432;2023-05-10T14:52:11;15.75;;;6.22;;
25299;SDS011;13241;51.208;4.432;2023-05-10T14:54:38;16.60;;;5.38;;
25299;SDS011;13241;51.208;4.432;2023-05-10T14:57:06;13.38;;;6.28;;
25299;SDS011;13241;51.208;4.432;2023-05-10T14:59:33;12.48;;;5.60;;
25299;SDS011;13241;51.208;4.432;2023-05-10T15:02:00;8.57;;;3.67;;
25299;SDS011;13241;51.208;4.432;2023-05-10T15:04:28;8.48;;;3.75;;
25299;SDS011;13241;51.208;4.432;2023-05-10T15:06:55;5.97;;;3.63;;
25299;SDS011;13241;51.208;4.432;2023-05-10T15:09:25;7.78;;;2.55;;
25299;SDS011;13241;51.208;4.432;2023-05-10T15:11:54;4.10;;;2.67;;
25299;SDS011;13241;51.208;4.432;2023-05-10T15:14:21;4.00;;;2.78;;